Time;durP1;ratioP1;P1;durP2;ratioP2;P2;SDS_P1;SDS_P2;PMS_P1;PMS_P2;Temp;Humidity;BMP_temperature;BMP_pressure;BME280_temperature;BME280_humidity;BME280_pressure;Samples;Min_cycle;Max_cycle;Signal;HPM_P1;HPM_P2
2022/05/12 00:02:21;;;;;;;22.87;21.40;;;;;;;;;;5034334;28;20479;-85
2022/05/12 00:04:48;;;;;;;22.50;21.00;;;;;;;;;;5034443;28;20456;-85
2022/05/12 00:07:15;;;;;;;22.50;21.30;;;;;;;;;;5034450;28;20912;-84
2022/05/12 00:09:43;;;;;;;28.43;27.03;;;;;;;;;;5034399;28;20456;-86
2022/05/12 00:12:12;;;;;;;30.73;29.03;;;;;;;;;;5017237;28;20796;-86
2022/05/12 00:14:39;;;;;;;28.47;26.77;;;;;;;;;;5034529;28;20440;-85
2022/05/12 00:17:07;;;;;;;28.80;26.97;;;;;;;;;;5034094;28;20419;-85
2022/05/12 00:19:34;;;;;;;28.70;27.10;;;;;;;;;;5034366;28;20522;-85
2022/05/12 00:22:01;;;;;;;28.30;26.70;;;;;;;;;;5034192;28;20893;-86
2022/05/12 00:24:29;;;;;;;28.97;27.20;;;;;;;;;;5034248;28;20493;-85
2022/05/12 00:26:56;;;;;;;27.10;25.67;;;;;;;;;;5034035;28;20439;-85
2022/05/12 00:29:25;;;;;;;28.90;27.20;;;;;;;;;;5033729;28;20967;-85
2022/05/12 00:31:53;;;;;;;23.30;21.90;;;;;;;;;;5034072;28;20523;-85
2022/05/12 00:34:21;;;;;;;24.83;23.13;;;;;;;;;;5033982;28;20850;-85
2022/05/12 00:36:49;;;;;;;22.10;21.00;;;;;;;;;;5034294;28;20447;-86
2022/05/12 00:39:16;;;;;;;22.90;21.40;;;;;;;;;;5033642;28;20459;-86
2022/05/12 00:41:44;;;;;;;23.13;21.73;;;;;;;;;;5033662;28;20958;-85
2022/05/12 00:44:13;;;;;;;25.50;23.67;;;;;;;;;;5033774;28;20411;-85
2022/05/12 00:46:42;;;;;;;23.77;22.37;;;;;;;;;;5033780;28;20427;-85
2022/05/12 00:49:11;;;;;;;22.43;21.03;;;;;;;;;;5033957;28;20869;-84
2022/05/12 00:51:40;;;;;;;21.03;19.73;;;;;;;;;;5033833;28;20403;-86
2022/05/12 00:54:13;;;;;;;21.73;20.33;;;;;;;;;;5033787;28;20467;-86
2022/05/12 00:56:41;;;;;;;18.90;18.00;;;;;;;;;;5033862;28;20909;-86
2022/05/12 00:59:10;;;;;;;19.90;18.70;;;;;;;;;;5033468;28;20488;-86
2022/05/12 01:01:38;;;;;;;18.47;17.43;;;;;;;;;;5033455;28;20476;-85
2022/05/12 01:04:07;;;;;;;19.37;18.40;;;;;;;;;;5033626;28;20429;-86
2022/05/12 01:06:35;;;;;;;19.13;18.00;;;;;;;;;;5033481;28;20436;-86
2022/05/12 01:09:03;;;;;;;18.43;17.53;;;;;;;;;;5033511;28;20513;-86
2022/05/12 01:11:30;;;;;;;19.83;18.73;;;;;;;;;;5033528;28;20539;-85
2022/05/12 01:14:00;;;;;;;18.50;17.60;;;;;;;;;;5033232;28;20440;-86
2022/05/12 01:16:38;;;;;;;18.33;17.43;;;;;;;;;;5033221;28;20455;-86
2022/05/12 01:19:07;;;;;;;19.03;17.77;;;;;;;;;;5033332;28;20803;-85
2022/05/12 01:21:35;;;;;;;18.67;17.60;;;;;;;;;;5033605;28;20437;-85
2022/05/12 01:24:04;;;;;;;18.70;17.70;;;;;;;;;;5033481;28;20854;-85
2022/05/12 01:26:33;;;;;;;18.87;17.97;;;;;;;;;;5033538;28;20434;-86
2022/05/12 01:29:00;;;;;;;18.90;18.00;;;;;;;;;;5033133;28;20430;-86
2022/05/12 01:31:28;;;;;;;18.70;17.53;;;;;;;;;;5033448;28;20444;-85
2022/05/12 01:33:55;;;;;;;18.50;17.50;;;;;;;;;;5031948;28;20448;-86
2022/05/12 01:36:23;;;;;;;19.33;18.30;;;;;;;;;;5033166;28;20440;-86
2022/05/12 01:38:50;;;;;;;19.27;18.17;;;;;;;;;;5033573;28;20443;-85
2022/05/12 01:41:19;;;;;;;19.57;18.47;;;;;;;;;;5036374;28;20444;-86
2022/05/12 01:43:47;;;;;;;18.67;17.73;;;;;;;;;;5036986;28;20529;-85
2022/05/12 01:46:15;;;;;;;19.50;18.40;;;;;;;;;;5037368;28;20873;-86
2022/05/12 01:48:42;;;;;;;18.50;17.50;;;;;;;;;;5037473;28;20411;-85
2022/05/12 01:51:10;;;;;;;18.63;17.73;;;;;;;;;;5036668;28;20487;-85
2022/05/12 01:53:38;;;;;;;17.73;16.90;;;;;;;;;;5037074;28;20496;-86
2022/05/12 01:56:06;;;;;;;19.70;18.50;;;;;;;;;;5036915;28;20440;-86
2022/05/12 01:58:35;;;;;;;18.20;17.10;;;;;;;;;;5036894;28;20978;-86
2022/05/12 02:01:02;;;;;;;19.80;18.43;;;;;;;;;;5037315;28;20411;-85
2022/05/12 02:03:31;;;;;;;20.10;19.00;;;;;;;;;;5036821;28;20468;-85
2022/05/12 02:05:58;;;;;;;20.30;19.27;;;;;;;;;;5036746;28;20418;-86
2022/05/12 02:08:25;;;;;;;19.67;18.47;;;;;;;;;;5036928;28;20442;-86
2022/05/12 02:10:53;;;;;;;18.63;17.73;;;;;;;;;;5035830;28;20457;-86
2022/05/12 02:13:25;;;;;;;18.47;17.57;;;;;;;;;;5019396;28;20429;-86
2022/05/12 02:15:54;;;;;;;18.90;17.93;;;;;;;;;;5036937;28;20411;-86
2022/05/12 02:18:23;;;;;;;19.47;18.47;;;;;;;;;;5036747;28;20419;-86
2022/05/12 02:20:50;;;;;;;18.97;17.97;;;;;;;;;;5036583;28;20485;-86
2022/05/12 02:23:18;;;;;;;19.10;18.10;;;;;;;;;;5036810;28;20491;-86
2022/05/12 02:25:45;;;;;;;19.90;18.80;;;;;;;;;;5036466;28;20418;-85
2022/05/12 02:28:13;;;;;;;19.20;18.20;;;;;;;;;;5036585;28;20434;-86
2022/05/12 02:30:40;;;;;;;18.40;17.50;;;;;;;;;;5036739;28;20440;-86
2022/05/12 02:33:10;;;;;;;19.27;18.27;;;;;;;;;;5036803;28;20451;-85
2022/05/12 02:35:38;;;;;;;19.77;18.70;;;;;;;;;;5036262;28;20434;-86
2022/05/12 02:38:05;;;;;;;19.20;18.10;;;;;;;;;;5018965;28;20459;-86
2022/05/12 02:40:33;;;;;;;19.53;18.33;;;;;;;;;;5036612;28;20423;-86
2022/05/12 02:43:00;;;;;;;19.93;18.73;;;;;;;;;;5036355;28;20492;-86
2022/05/12 02:45:28;;;;;;;18.97;18.00;;;;;;;;;;5036468;28;20445;-86
2022/05/12 02:47:56;;;;;;;19.20;18.30;;;;;;;;;;5036423;28;20435;-85
2022/05/12 02:50:25;;;;;;;19.30;18.23;;;;;;;;;;5035947;28;20988;-86
2022/05/12 02:52:52;;;;;;;20.03;18.57;;;;;;;;;;5036057;28;20441;-86
2022/05/12 02:55:20;;;;;;;18.97;18.07;;;;;;;;;;5036082;28;20415;-86
2022/05/12 02:57:47;;;;;;;19.77;18.67;;;;;;;;;;5036156;28;20419;-85
2022/05/12 03:00:17;;;;;;;19.40;18.40;;;;;;;;;;5036296;28;20450;-85
2022/05/12 03:02:46;;;;;;;19.47;18.47;;;;;;;;;;5036014;28;20454;-85
2022/05/12 03:05:14;;;;;;;19.70;18.70;;;;;;;;;;5035815;28;20442;-86
2022/05/12 03:07:43;;;;;;;20.07;18.97;;;;;;;;;;5035928;28;20444;-86
2022/05/12 03:10:11;;;;;;;20.70;19.40;;;;;;;;;;5035787;28;20444;-85
2022/05/12 03:12:39;;;;;;;20.40;19.30;;;;;;;;;;5035765;28;20436;-85
2022/05/12 03:15:07;;;;;;;19.90;18.80;;;;;;;;;;5035877;28;20467;-86
2022/05/12 03:17:35;;;;;;;20.10;19.00;;;;;;;;;;5035982;28;20493;-86
2022/05/12 03:20:02;;;;;;;19.57;18.37;;;;;;;;;;5035766;28;20455;-86
2022/05/12 03:22:30;;;;;;;19.47;18.43;;;;;;;;;;5035263;28;20478;-86
2022/05/12 03:24:59;;;;;;;19.73;18.47;;;;;;;;;;5035434;28;20426;-86
2022/05/12 03:27:26;;;;;;;20.60;19.40;;;;;;;;;;5035546;28;20415;-86
2022/05/12 03:29:54;;;;;;;20.37;19.27;;;;;;;;;;5035502;28;20468;-86
2022/05/12 03:32:21;;;;;;;20.23;19.00;;;;;;;;;;5035413;28;20435;-86
2022/05/12 03:34:49;;;;;;;19.53;18.53;;;;;;;;;;5035609;28;20412;-86
2022/05/12 03:37:17;;;;;;;19.60;18.60;;;;;;;;;;5035537;28;20466;-86
2022/05/12 03:39:44;;;;;;;19.80;18.80;;;;;;;;;;5035789;28;20452;-85
2022/05/12 03:42:15;;;;;;;19.63;18.63;;;;;;;;;;5035290;28;20414;-87
2022/05/12 03:44:49;;;;;;;19.50;18.50;;;;;;;;;;5035785;28;20456;-87
2022/05/12 03:47:19;;;;;;;19.83;18.70;;;;;;;;;;5035562;28;20810;-87
2022/05/12 03:49:47;;;;;;;20.33;19.00;;;;;;;;;;5033989;28;20462;-87
2022/05/12 03:52:15;;;;;;;19.70;18.60;;;;;;;;;;5034061;28;20505;-87
2022/05/12 03:54:42;;;;;;;19.57;18.47;;;;;;;;;;5035429;28;20503;-86
2022/05/12 03:57:10;;;;;;;19.27;18.27;;;;;;;;;;5035340;28;20467;-87
2022/05/12 03:59:39;;;;;;;19.67;18.60;;;;;;;;;;5035004;28;20963;-87
2022/05/12 04:02:07;;;;;;;19.20;18.20;;;;;;;;;;5035341;28;20411;-86
2022/05/12 04:04:34;;;;;;;19.13;17.97;;;;;;;;;;5034226;28;21005;-86
2022/05/12 04:07:02;;;;;;;19.40;18.40;;;;;;;;;;5033698;28;20431;-86
2022/05/12 04:09:29;;;;;;;19.30;18.20;;;;;;;;;;5035248;28;20830;-86
2022/05/12 04:11:57;;;;;;;19.70;18.47;;;;;;;;;;5035079;28;20443;-86
2022/05/12 04:14:24;;;;;;;18.77;17.50;;;;;;;;;;5034755;28;20426;-86
2022/05/12 04:16:53;;;;;;;18.57;17.50;;;;;;;;;;5034923;28;20407;-86
2022/05/12 04:19:21;;;;;;;18.67;17.57;;;;;;;;;;5034500;28;20434;-86
2022/05/12 04:21:49;;;;;;;19.33;18.23;;;;;;;;;;5017189;28;20415;-86
2022/05/12 04:24:16;;;;;;;19.30;17.93;;;;;;;;;;5033270;28;20492;-86
2022/05/12 04:26:44;;;;;;;19.63;18.43;;;;;;;;;;5034732;28;20516;-87
2022/05/12 04:29:12;;;;;;;18.50;17.50;;;;;;;;;;5034380;28;20411;-86
2022/05/12 04:31:39;;;;;;;19.03;17.90;;;;;;;;;;5034630;28;20467;-86
2022/05/12 04:36:53;;;;;;;19.37;18.40;;;;;;;;;;5034021;28;20398;-86
2022/05/12 04:39:21;;;;;;;18.93;17.93;;;;;;;;;;5034212;28;20440;-86
2022/05/12 04:41:48;;;;;;;18.80;17.90;;;;;;;;;;5034334;28;20455;-87
2022/05/12 04:44:15;;;;;;;19.07;18.10;;;;;;;;;;5033887;28;20989;-87
2022/05/12 04:46:43;;;;;;;19.23;18.23;;;;;;;;;;5034101;28;20505;-86
2022/05/12 04:49:14;;;;;;;19.20;18.30;;;;;;;;;;5034202;28;20460;-86
2022/05/12 04:51:42;;;;;;;19.00;17.97;;;;;;;;;;5033968;28;20483;-86
2022/05/12 04:54:10;;;;;;;19.17;18.07;;;;;;;;;;5034114;28;20804;-86
2022/05/12 04:56:38;;;;;;;18.87;17.80;;;;;;;;;;5033896;28;20472;-86
2022/05/12 04:59:05;;;;;;;19.10;18.20;;;;;;;;;;5033978;28;20446;-86
2022/05/12 05:01:32;;;;;;;19.90;18.80;;;;;;;;;;5033923;28;20750;-86
2022/05/12 05:04:00;;;;;;;20.53;19.33;;;;;;;;;;5033647;28;20496;-86
2022/05/12 05:06:29;;;;;;;19.00;18.10;;;;;;;;;;5034003;28;20477;-86
2022/05/12 05:08:56;;;;;;;19.80;18.67;;;;;;;;;;5034006;28;20463;-85
2022/05/12 05:11:24;;;;;;;18.23;17.40;;;;;;;;;;5032693;28;20448;-86
2022/05/12 05:13:51;;;;;;;19.67;18.50;;;;;;;;;;5033767;28;20884;-86
2022/05/12 05:16:18;;;;;;;18.67;17.77;;;;;;;;;;5033089;28;20448;-86
2022/05/12 05:18:46;;;;;;;19.00;18.10;;;;;;;;;;5033204;28;20459;-86
2022/05/12 05:21:13;;;;;;;20.17;19.00;;;;;;;;;;5033381;28;20932;-86
2022/05/12 05:23:42;;;;;;;19.57;18.13;;;;;;;;;;5033341;28;20461;-87
2022/05/12 05:26:09;;;;;;;19.40;18.40;;;;;;;;;;5033711;28;20447;-86
2022/05/12 05:28:37;;;;;;;19.57;18.50;;;;;;;;;;5033562;28;20466;-86
2022/05/12 05:31:05;;;;;;;19.40;18.07;;;;;;;;;;5033826;28;20450;-86
2022/05/12 05:33:33;;;;;;;20.17;18.93;;;;;;;;;;5033526;28;20423;-86
2022/05/12 05:36:00;;;;;;;19.63;18.50;;;;;;;;;;5033571;28;20518;-86
2022/05/12 05:38:28;;;;;;;19.10;18.00;;;;;;;;;;5033661;28;20410;-87
2022/05/12 05:40:57;;;;;;;19.53;18.53;;;;;;;;;;5033000;28;20527;-86
2022/05/12 05:43:26;;;;;;;19.20;18.13;;;;;;;;;;5033209;28;20484;-87
2022/05/12 05:45:54;;;;;;;20.03;18.67;;;;;;;;;;5033285;28;20482;-86
2022/05/12 05:48:22;;;;;;;19.57;18.37;;;;;;;;;;5033631;28;20834;-87
2022/05/12 05:53:36;;;;;;;19.97;18.87;;;;;;;;;;5033298;28;20419;-87
2022/05/12 05:56:06;;;;;;;21.40;19.97;;;;;;;;;;5032147;28;20503;-86
2022/05/12 05:58:33;;;;;;;18.93;18.03;;;;;;;;;;5033200;28;20964;-86
2022/05/12 06:01:01;;;;;;;19.03;18.00;;;;;;;;;;5033127;28;20432;-86
2022/05/12 06:03:28;;;;;;;19.10;18.20;;;;;;;;;;5033007;28;20487;-86
2022/05/12 06:05:57;;;;;;;20.50;18.83;;;;;;;;;;5033208;28;20462;-87
2022/05/12 06:08:24;;;;;;;19.93;18.80;;;;;;;;;;5033091;28;20905;-86
2022/05/12 06:10:52;;;;;;;19.83;18.67;;;;;;;;;;5015828;28;20444;-85
2022/05/12 06:13:21;;;;;;;20.10;19.10;;;;;;;;;;5033148;28;20446;-91
2022/05/12 06:15:49;;;;;;;21.07;19.70;;;;;;;;;;5033207;28;20908;-86
2022/05/12 06:18:18;;;;;;;20.10;18.87;;;;;;;;;;5031727;28;20495;-85
2022/05/12 06:20:45;;;;;;;20.40;19.20;;;;;;;;;;5033134;28;20447;-86
2022/05/12 06:23:13;;;;;;;20.73;19.47;;;;;;;;;;5032876;28;20411;-87
2022/05/12 06:25:41;;;;;;;21.33;19.93;;;;;;;;;;5033593;28;20434;-86
2022/05/12 06:28:08;;;;;;;20.63;19.53;;;;;;;;;;5036786;28;20429;-87
2022/05/12 06:30:37;;;;;;;20.20;19.10;;;;;;;;;;5036915;28;20436;-86
2022/05/12 06:33:05;;;;;;;19.90;18.80;;;;;;;;;;5036824;28;20418;-86
2022/05/12 06:35:33;;;;;;;21.50;19.83;;;;;;;;;;5036816;28;20424;-87
2022/05/12 06:38:01;;;;;;;20.30;19.10;;;;;;;;;;5019192;28;20464;-86
2022/05/12 06:40:28;;;;;;;21.00;19.47;;;;;;;;;;5035319;28;20510;-86
2022/05/12 06:42:55;;;;;;;20.70;19.60;;;;;;;;;;5035448;28;20426;-87
2022/05/12 06:45:23;;;;;;;20.90;19.40;;;;;;;;;;5036684;28;20988;-88
2022/05/12 06:47:52;;;;;;;21.80;20.53;;;;;;;;;;5036802;28;20422;-87
2022/05/12 06:50:22;;;;;;;20.70;19.60;;;;;;;;;;5036478;28;20534;-87
2022/05/12 06:52:50;;;;;;;21.17;19.90;;;;;;;;;;5036491;28;20459;-87
2022/05/12 06:55:19;;;;;;;21.30;20.03;;;;;;;;;;5036656;28;20475;-88
2022/05/12 06:57:47;;;;;;;20.80;19.60;;;;;;;;;;5036148;28;20490;-87
2022/05/12 07:00:16;;;;;;;21.20;19.77;;;;;;;;;;5036483;28;20511;-87
2022/05/12 07:02:44;;;;;;;22.80;20.93;;;;;;;;;;5036465;28;20912;-87
2022/05/12 07:05:14;;;;;;;21.80;20.50;;;;;;;;;;5036489;28;20571;-89
2022/05/12 07:07:42;;;;;;;21.20;19.90;;;;;;;;;;5036101;28;20406;-86
2022/05/12 07:10:10;;;;;;;22.07;20.77;;;;;;;;;;5019163;28;20411;-86
2022/05/12 07:12:37;;;;;;;21.27;20.00;;;;;;;;;;5034670;28;20960;-86
2022/05/12 07:15:05;;;;;;;21.97;20.57;;;;;;;;;;5034666;28;20813;-86
2022/05/12 07:17:37;;;;;;;21.10;20.00;;;;;;;;;;5035514;28;20532;-86
2022/05/12 07:28:29;;;;;;;21.57;20.27;;;;;;;;;;4994098;28;20820;-86
2022/05/12 07:31:02;;;;;;;22.13;20.60;;;;;;;;;;4994307;28;20409;-85
2022/05/12 07:33:30;;;;;;;21.93;20.73;;;;;;;;;;4993941;28;20799;-86
2022/05/12 07:35:57;;;;;;;22.60;21.40;;;;;;;;;;4993945;28;20462;-85
2022/05/12 07:38:26;;;;;;;22.57;21.03;;;;;;;;;;4992854;28;20850;-86
2022/05/12 07:40:54;;;;;;;22.60;21.30;;;;;;;;;;4993887;28;20513;-85
2022/05/12 07:43:22;;;;;;;21.73;20.43;;;;;;;;;;4993747;28;20464;-85
2022/05/12 07:45:49;;;;;;;22.20;21.00;;;;;;;;;;4993776;28;20423;-85
2022/05/12 07:48:17;;;;;;;22.37;21.07;;;;;;;;;;4993863;28;20545;-82
2022/05/12 07:50:45;;;;;;;21.20;19.97;;;;;;;;;;4981343;28;20478;-88
2022/05/12 07:53:12;;;;;;;21.23;20.07;;;;;;;;;;4974711;28;20951;-85
2022/05/12 07:55:41;;;;;;;21.57;20.27;;;;;;;;;;4974447;28;20410;-84
2022/05/12 07:58:08;;;;;;;21.70;20.30;;;;;;;;;;4974035;28;20568;-85
2022/05/12 08:00:36;;;;;;;21.87;20.67;;;;;;;;;;4973794;28;20537;-84
2022/05/12 08:03:04;;;;;;;21.33;20.13;;;;;;;;;;4957577;28;20510;-85
2022/05/12 08:05:31;;;;;;;22.70;21.40;;;;;;;;;;5014509;28;21003;-85
2022/05/12 08:07:59;;;;;;;21.70;20.50;;;;;;;;;;5014919;28;20426;-85
2022/05/12 08:10:26;;;;;;;23.43;22.13;;;;;;;;;;5014761;28;20450;-85
2022/05/12 08:12:56;;;;;;;21.53;20.33;;;;;;;;;;5014493;28;20432;-85
2022/05/12 08:15:25;;;;;;;21.47;20.27;;;;;;;;;;5014830;28;20449;-85
2022/05/12 08:17:52;;;;;;;22.57;21.23;;;;;;;;;;5014546;28;20488;-86
2022/05/12 08:20:20;;;;;;;21.97;20.70;;;;;;;;;;5013809;28;20453;-86
2022/05/12 08:22:48;;;;;;;22.50;21.23;;;;;;;;;;5014851;28;20444;-86
2022/05/12 08:25:16;;;;;;;23.37;21.97;;;;;;;;;;5014710;28;20474;-86
2022/05/12 08:27:43;;;;;;;21.23;20.13;;;;;;;;;;5014774;28;20441;-86
2022/05/12 08:30:15;;;;;;;22.47;21.07;;;;;;;;;;5015250;28;20445;-87
2022/05/12 08:32:43;;;;;;;22.47;21.13;;;;;;;;;;5014550;28;20480;-86
2022/05/12 08:35:10;;;;;;;22.70;21.50;;;;;;;;;;5014610;28;20946;-86
2022/05/12 08:37:38;;;;;;;23.27;21.77;;;;;;;;;;5014735;28;20448;-86
2022/05/12 08:40:06;;;;;;;23.37;22.07;;;;;;;;;;5014588;28;20408;-86
2022/05/12 08:42:35;;;;;;;23.23;21.80;;;;;;;;;;5014821;28;20830;-87
2022/05/12 08:45:04;;;;;;;24.27;22.77;;;;;;;;;;5014042;28;20491;-87
2022/05/12 08:47:35;;;;;;;23.80;22.20;;;;;;;;;;5014441;28;20460;-86
2022/05/12 08:50:03;;;;;;;23.40;22.00;;;;;;;;;;5020560;28;20494;-86
2022/05/12 08:52:36;;;;;;;23.10;21.30;;;;;;;;;;5034116;28;20463;-85
2022/05/12 08:55:09;;;;;;;21.93;20.77;;;;;;;;;;5034124;28;20798;-86
2022/05/12 08:57:38;;;;;;;23.77;22.30;;;;;;;;;;5033684;28;20410;-86
2022/05/12 09:00:07;;;;;;;23.10;21.80;;;;;;;;;;5033959;28;20927;-85
2022/05/12 09:02:40;;;;;;;23.43;22.03;;;;;;;;;;5033913;28;20415;-86
2022/05/12 09:05:09;;;;;;;23.90;22.10;;;;;;;;;;5033565;28;20458;-86
2022/05/12 09:07:41;;;;;;;24.40;22.80;;;;;;;;;;5033704;28;20918;-85
2022/05/12 09:10:15;;;;;;;22.67;21.27;;;;;;;;;;5033925;28;20433;-85
2022/05/12 09:12:45;;;;;;;23.10;21.80;;;;;;;;;;5033506;28;20425;-94
2022/05/12 09:15:14;;;;;;;23.87;22.57;;;;;;;;;;5038980;28;20422;-86
2022/05/12 09:17:45;;;;;;;22.97;21.67;;;;;;;;;;5053423;28;20427;-84
2022/05/12 09:20:13;;;;;;;24.27;22.50;;;;;;;;;;5053030;28;20410;-85
2022/05/12 09:22:42;;;;;;;24.03;22.63;;;;;;;;;;5053331;28;20414;-85
2022/05/12 09:25:10;;;;;;;24.00;22.60;;;;;;;;;;5052943;28;20940;-85
2022/05/12 09:27:39;;;;;;;25.97;24.10;;;;;;;;;;5053123;28;20447;-85
2022/05/12 09:30:09;;;;;;;25.80;23.90;;;;;;;;;;5053487;28;20402;-85
2022/05/12 09:32:38;;;;;;;23.00;21.60;;;;;;;;;;5053254;28;20435;-84
2022/05/12 09:35:21;;;;;;;23.77;22.27;;;;;;;;;;5052757;28;20835;-85
2022/05/12 09:37:49;;;;;;;23.73;22.23;;;;;;;;;;5053325;28;20445;-85
2022/05/12 09:40:25;;;;;;;23.40;21.70;;;;;;;;;;5053004;28;20437;-86
2022/05/12 09:42:53;;;;;;;24.50;23.00;;;;;;;;;;5053761;28;20417;-86
2022/05/12 09:45:23;;;;;;;23.60;22.20;;;;;;;;;;5052850;28;20526;-85
2022/05/12 09:47:50;;;;;;;23.77;22.33;;;;;;;;;;5053182;28;20446;-86
2022/05/12 09:50:24;;;;;;;24.10;22.70;;;;;;;;;;5052577;28;20472;-85
2022/05/12 09:53:00;;;;;;;24.13;22.73;;;;;;;;;;5053149;28;20424;-86
2022/05/12 09:55:29;;;;;;;23.60;22.30;;;;;;;;;;5051792;28;20425;-86
2022/05/12 09:57:58;;;;;;;24.53;22.93;;;;;;;;;;5052708;28;21045;-86
2022/05/12 10:00:43;;;;;;;22.60;21.40;;;;;;;;;;5052747;28;20537;-86
2022/05/12 10:09:04;;;;;;;23.60;22.20;;;;;;;;;;5056993;28;20422;-87
2022/05/12 10:11:32;;;;;;;24.67;23.13;;;;;;;;;;5056027;28;20822;-87
2022/05/12 10:14:02;;;;;;;24.13;22.60;;;;;;;;;;5057087;28;20806;-86
2022/05/12 10:16:31;;;;;;;25.20;23.83;;;;;;;;;;5057045;28;20471;-86
2022/05/12 10:19:01;;;;;;;23.47;22.07;;;;;;;;;;5057048;28;20493;-86
2022/05/12 10:21:35;;;;;;;24.07;22.67;;;;;;;;;;5056858;28;20461;-90
2022/05/12 10:24:09;;;;;;;24.53;23.03;;;;;;;;;;5056241;28;20417;-86
2022/05/12 10:26:38;;;;;;;23.50;21.90;;;;;;;;;;5056387;28;20426;-86
2022/05/12 10:29:10;;;;;;;23.17;21.77;;;;;;;;;;5056771;28;20426;-87
2022/05/12 10:31:40;;;;;;;23.10;21.70;;;;;;;;;;5056526;28;20451;-87
2022/05/12 10:34:23;;;;;;;24.17;22.63;;;;;;;;;;5057147;28;20424;-87
2022/05/12 10:37:01;;;;;;;25.03;23.63;;;;;;;;;;5057206;28;20463;-87
2022/05/12 10:39:31;;;;;;;25.03;23.53;;;;;;;;;;5038524;28;20508;-86
2022/05/12 10:42:11;;;;;;;25.00;23.30;;;;;;;;;;5056635;28;20785;-87
2022/05/12 10:44:46;;;;;;;25.00;23.70;;;;;;;;;;5055959;28;20446;-83
2022/05/12 10:47:17;;;;;;;25.33;23.83;;;;;;;;;;5056473;28;20443;-86
2022/05/12 10:49:48;;;;;;;25.13;23.73;;;;;;;;;;5051948;28;20571;-84
2022/05/12 10:52:24;;;;;;;24.30;22.70;;;;;;;;;;5036019;28;20422;-85
2022/05/12 10:55:01;;;;;;;23.97;22.67;;;;;;;;;;5035882;28;20829;-85
2022/05/12 10:57:33;;;;;;;24.63;23.30;;;;;;;;;;5035821;28;20432;-84
2022/05/12 11:00:10;;;;;;;24.90;23.40;;;;;;;;;;5028144;28;20403;-85
2022/05/12 11:02:41;;;;;;;24.53;22.80;;;;;;;;;;5035619;28;20403;-85
2022/05/12 11:05:15;;;;;;;24.50;23.00;;;;;;;;;;5035358;28;20493;-85
2022/05/12 11:07:47;;;;;;;25.37;23.50;;;;;;;;;;5036156;28;20459;-85
2022/05/12 11:10:19;;;;;;;24.20;22.80;;;;;;;;;;5035916;28;20802;-85
2022/05/12 11:12:48;;;;;;;24.37;22.87;;;;;;;;;;5016698;28;20440;-85
2022/05/12 11:15:18;;;;;;;25.30;23.70;;;;;;;;;;5035642;28;20418;-85
2022/05/12 11:17:48;;;;;;;24.53;23.00;;;;;;;;;;5035586;28;20441;-85
2022/05/12 11:20:25;;;;;;;24.77;23.33;;;;;;;;;;5035686;28;20442;-85
2022/05/12 11:22:58;;;;;;;25.50;23.60;;;;;;;;;;5035282;28;20530;-85
2022/05/12 11:25:30;;;;;;;22.90;21.47;;;;;;;;;;5035247;28;20809;-84
2022/05/12 11:30:46;;;;;;;24.10;22.50;;;;;;;;;;5034243;28;20454;-83
2022/05/12 11:33:27;;;;;;;23.70;22.37;;;;;;;;;;5035895;28;20455;-83
2022/05/12 11:35:55;;;;;;;22.47;21.17;;;;;;;;;;5035265;28;20463;-89
2022/05/12 11:38:49;;;;;;;23.47;22.17;;;;;;;;;;5035462;28;20440;-85
2022/05/12 11:41:46;;;;;;;24.03;22.43;;;;;;;;;;4974123;28;20425;-84
2022/05/12 11:44:26;;;;;;;24.53;23.03;;;;;;;;;;4973860;28;20430;-85
2022/05/12 11:47:03;;;;;;;26.83;25.23;;;;;;;;;;4974120;28;20469;-85
2022/05/12 11:49:39;;;;;;;26.90;25.07;;;;;;;;;;4975637;28;20445;-85
2022/05/12 11:52:13;;;;;;;25.90;24.30;;;;;;;;;;4993176;28;20440;-85
2022/05/12 11:54:49;;;;;;;25.60;24.10;;;;;;;;;;4993408;28;20448;-85
2022/05/12 11:57:25;;;;;;;25.77;23.97;;;;;;;;;;4992847;28;20467;-84
2022/05/12 11:59:53;;;;;;;26.23;24.27;;;;;;;;;;4992758;28;20467;-85
2022/05/12 12:02:39;;;;;;;25.60;24.20;;;;;;;;;;4993122;28;20994;-84
2022/05/12 12:05:08;;;;;;;26.40;24.83;;;;;;;;;;4992716;28;20485;-84
2022/05/12 12:07:53;;;;;;;26.33;24.73;;;;;;;;;;4992972;28;20945;-85
2022/05/12 12:10:31;;;;;;;25.43;23.93;;;;;;;;;;4991819;28;20830;-85
2022/05/12 12:13:02;;;;;;;26.40;24.80;;;;;;;;;;4991191;28;20473;-85
2022/05/12 12:15:44;;;;;;;26.63;25.00;;;;;;;;;;4992565;28;20432;-83
2022/05/12 12:18:44;;;;;;;26.60;25.03;;;;;;;;;;5052013;28;20939;-85
2022/05/12 12:21:28;;;;;;;26.60;24.90;;;;;;;;;;4992933;28;20815;-85
2022/05/12 12:24:04;;;;;;;25.73;24.23;;;;;;;;;;4975991;28;20863;-84
2022/05/12 12:26:36;;;;;;;27.47;25.87;;;;;;;;;;4992860;28;20474;-85
2022/05/12 12:29:15;;;;;;;25.07;23.57;;;;;;;;;;4992523;28;20444;-84
2022/05/12 12:31:44;;;;;;;26.70;25.00;;;;;;;;;;4992454;28;20412;-86
2022/05/12 12:34:17;;;;;;;25.93;24.40;;;;;;;;;;4992849;28;20416;-86
2022/05/12 12:36:54;;;;;;;25.87;24.37;;;;;;;;;;4992760;28;20915;-85
2022/05/12 12:39:31;;;;;;;25.80;24.30;;;;;;;;;;4993041;28;20527;-86
2022/05/12 12:42:06;;;;;;;27.30;25.60;;;;;;;;;;4992850;28;20438;-86
2022/05/12 12:44:35;;;;;;;26.10;24.60;;;;;;;;;;4992820;28;20569;-86
2022/05/12 12:47:11;;;;;;;27.23;25.60;;;;;;;;;;4992702;28;20498;-86
2022/05/12 12:49:46;;;;;;;25.93;24.20;;;;;;;;;;4992489;28;20492;-85
2022/05/12 12:52:14;;;;;;;25.27;23.77;;;;;;;;;;5025925;28;20451;-86
2022/05/12 12:57:27;;;;;;;26.57;24.97;;;;;;;;;;5053778;28;20471;-86
2022/05/12 12:59:58;;;;;;;25.97;24.37;;;;;;;;;;5053898;28;20471;-87
2022/05/12 13:02:30;;;;;;;25.17;23.60;;;;;;;;;;5053925;28;20477;-86
2022/05/12 13:04:59;;;;;;;26.37;24.77;;;;;;;;;;5053726;28;20444;-86
2022/05/12 13:07:27;;;;;;;24.80;23.20;;;;;;;;;;5054489;28;20421;-86
2022/05/12 13:09:55;;;;;;;24.30;22.80;;;;;;;;;;5054257;28;20801;-86
2022/05/12 13:12:24;;;;;;;24.67;23.17;;;;;;;;;;5054246;28;20403;-86
2022/05/12 13:14:52;;;;;;;25.70;24.13;;;;;;;;;;5053946;28;20418;-85
2022/05/12 13:17:22;;;;;;;25.80;24.20;;;;;;;;;;5036795;28;20430;-86
2022/05/12 13:19:49;;;;;;;26.03;24.53;;;;;;;;;;5052674;28;20430;-85
2022/05/12 13:22:22;;;;;;;26.40;24.60;;;;;;;;;;5053391;28;20435;-84
2022/05/12 13:24:50;;;;;;;24.90;23.50;;;;;;;;;;5054269;28;20439;-88
2022/05/12 13:27:19;;;;;;;25.40;23.70;;;;;;;;;;5053413;28;20479;-89
2022/05/12 13:29:48;;;;;;;24.30;22.87;;;;;;;;;;5052975;28;20923;-96
2022/05/12 13:32:31;;;;;;;24.30;22.80;;;;;;;;;;5053164;28;20467;-84
2022/05/12 13:35:05;;;;;;;23.30;22.00;;;;;;;;;;5052311;28;20450;-83
2022/05/12 13:37:34;;;;;;;24.03;22.63;;;;;;;;;;5052529;28;20435;-84
2022/05/12 13:40:03;;;;;;;24.40;23.00;;;;;;;;;;5019243;28;20417;-85
2022/05/12 13:42:35;;;;;;;26.00;24.37;;;;;;;;;;5053807;28;20406;-84
2022/05/12 13:45:04;;;;;;;26.43;24.83;;;;;;;;;;5046697;28;20825;-84
2022/05/12 13:47:35;;;;;;;25.60;24.10;;;;;;;;;;5035650;28;20457;-84
2022/05/12 13:50:07;;;;;;;25.07;23.57;;;;;;;;;;5052749;28;20492;-84
2022/05/12 13:52:44;;;;;;;26.63;24.83;;;;;;;;;;5053019;28;20883;-84
2022/05/12 13:55:21;;;;;;;27.13;25.33;;;;;;;;;;5053344;28;20522;-85
2022/05/12 13:57:51;;;;;;;26.43;24.80;;;;;;;;;;5053681;28;20456;-85
2022/05/12 14:00:30;;;;;;;26.20;24.60;;;;;;;;;;5053301;28;20794;-85
2022/05/12 14:03:15;;;;;;;26.50;24.90;;;;;;;;;;5053869;28;20774;-85
2022/05/12 14:05:45;;;;;;;26.10;24.30;;;;;;;;;;5053957;28;20481;-85
2022/05/12 14:08:17;;;;;;;26.27;24.40;;;;;;;;;;5053468;28;20888;-84
2022/05/12 14:10:47;;;;;;;27.37;25.67;;;;;;;;;;5053739;28;20523;-84
2022/05/12 14:21:36;;;;;;;26.67;25.07;;;;;;;;;;5053609;28;20426;-87
2022/05/12 14:24:04;;;;;;;27.73;25.93;;;;;;;;;;5053283;28;20896;-88
2022/05/12 14:26:31;;;;;;;26.60;24.90;;;;;;;;;;5053410;28;20966;-87
2022/05/12 14:28:59;;;;;;;27.17;25.40;;;;;;;;;;5035292;28;20455;-88
2022/05/12 14:31:27;;;;;;;29.50;27.07;;;;;;;;;;5054287;28;20426;-90
2022/05/12 14:33:54;;;;;;;28.17;26.30;;;;;;;;;;5055077;28;20489;-92
2022/05/12 14:36:22;;;;;;;28.17;26.27;;;;;;;;;;5036034;28;20443;-94
2022/05/12 14:38:57;;;;;;;27.83;26.03;;;;;;;;;;5036116;28;20483;-91
2022/05/12 14:41:24;;;;;;;27.70;25.83;;;;;;;;;;5053436;28;20793;-91
2022/05/12 14:43:51;;;;;;;27.73;25.80;;;;;;;;;;5053307;28;20777;-94
2022/05/12 14:46:21;;;;;;;27.67;25.77;;;;;;;;;;5019684;28;20479;-95
2022/05/12 14:48:49;;;;;;;28.17;26.47;;;;;;;;;;5056770;28;20457;-87
2022/05/12 14:51:24;;;;;;;26.43;24.73;;;;;;;;;;5056470;28;21027;-86
2022/05/12 14:53:53;;;;;;;28.23;26.17;;;;;;;;;;5056762;28;20790;-86
2022/05/12 14:56:24;;;;;;;26.10;24.60;;;;;;;;;;5057351;28;20463;-85
2022/05/12 14:58:51;;;;;;;29.03;27.23;;;;;;;;;;5038715;28;20442;-84
2022/05/12 15:01:19;;;;;;;27.40;25.50;;;;;;;;;;5055436;28;20446;-83
2022/05/12 15:03:51;;;;;;;26.90;25.30;;;;;;;;;;5056149;28;20792;-90
2022/05/12 15:06:18;;;;;;;27.20;25.50;;;;;;;;;;5056614;28;20475;-88